sensor_id;sensor_type;location;lat;lon;timestamp;P1;durP1;ratioP1;P2;durP2;ratioP2
64188;SDS011;50493;50.970;10.082;2024-03-06T00:00:59;48.47;;;22.63;;
64188;SDS011;50493;50.970;10.082;2024-03-06T00:03:24;38.72;;;18.70;;
64188;SDS011;50493;50.970;10.082;2024-03-06T00:05:49;38.80;;;18.88;;
64188;SDS011;50493;50.970;10.082;2024-03-06T00:08:15;41.63;;;18.88;;
64188;SDS011;50493;50.970;10.082;2024-03-06T00:10:40;40.17;;;19.30;;
64188;SDS011;50493;50.970;10.082;2024-03-06T00:13:06;44.42;;;20.63;;
64188;SDS011;50493;50.970;10.082;2024-03-06T00:15:31;41.30;;;19.20;;
64188;SDS011;50493;50.970;10.082;2024-03-06T00:17:58;37.47;;;18.45;;
64188;SDS011;50493;50.970;10.082;2024-03-06T00:20:23;42.08;;;19.50;;
64188;SDS011;50493;50.970;10.082;2024-03-06T00:22:49;39.70;;;19.15;;
64188;SDS011;50493;50.970;10.082;2024-03-06T00:25:14;37.97;;;19.40;;
64188;SDS011;50493;50.970;10.082;2024-03-06T00:27:39;37.40;;;19.30;;
64188;SDS011;50493;50.970;10.082;2024-03-06T00:30:05;44.00;;;21.40;;
64188;SDS011;50493;50.970;10.082;2024-03-06T00:32:32;41.10;;;19.48;;
64188;SDS011;50493;50.970;10.082;2024-03-06T00:34:58;40.80;;;19.63;;
64188;SDS011;50493;50.970;10.082;2024-03-06T00:37:23;42.80;;;20.20;;
64188;SDS011;50493;50.970;10.082;2024-03-06T00:39:49;47.42;;;22.08;;
64188;SDS011;50493;50.970;10.082;2024-03-06T00:42:15;52.90;;;24.20;;
64188;SDS011;50493;50.970;10.082;2024-03-06T00:44:40;39.03;;;19.10;;
64188;SDS011;50493;50.970;10.082;2024-03-06T00:47:06;47.97;;;22.15;;
64188;SDS011;50493;50.970;10.082;2024-03-06T00:49:31;39.58;;;19.80;;
64188;SDS011;50493;50.970;10.082;2024-03-06T00:51:58;40.50;;;19.95;;
64188;SDS011;50493;50.970;10.082;2024-03-06T00:54:23;41.78;;;19.75;;
64188;SDS011;50493;50.970;10.082;2024-03-06T00:56:48;45.97;;;20.35;;
64188;SDS011;50493;50.970;10.082;2024-03-06T00:59:14;41.22;;;19.85;;
64188;SDS011;50493;50.970;10.082;2024-03-06T01:01:39;43.97;;;20.52;;
64188;SDS011;50493;50.970;10.082;2024-03-06T01:04:04;51.63;;;23.77;;
64188;SDS011;50493;50.970;10.082;2024-03-06T01:06:30;43.58;;;20.38;;
64188;SDS011;50493;50.970;10.082;2024-03-06T01:08:56;44.05;;;20.05;;
64188;SDS011;50493;50.970;10.082;2024-03-06T01:11:23;40.17;;;19.48;;
64188;SDS011;50493;50.970;10.082;2024-03-06T01:13:48;41.20;;;19.15;;
64188;SDS011;50493;50.970;10.082;2024-03-06T01:16:14;42.60;;;21.17;;
64188;SDS011;50493;50.970;10.082;2024-03-06T01:18:39;43.45;;;20.45;;
64188;SDS011;50493;50.970;10.082;2024-03-06T01:21:04;42.63;;;20.80;;
64188;SDS011;50493;50.970;10.082;2024-03-06T01:23:30;44.67;;;20.90;;
64188;SDS011;50493;50.970;10.082;2024-03-06T01:25:56;39.88;;;19.02;;
64188;SDS011;50493;50.970;10.082;2024-03-06T01:28:22;41.50;;;19.70;;
64188;SDS011;50493;50.970;10.082;2024-03-06T01:30:47;42.65;;;20.50;;
64188;SDS011;50493;50.970;10.082;2024-03-06T01:33:12;42.45;;;19.88;;
64188;SDS011;50493;50.970;10.082;2024-03-06T01:35:38;39.92;;;19.60;;
64188;SDS011;50493;50.970;10.082;2024-03-06T01:38:03;48.75;;;24.15;;
64188;SDS011;50493;50.970;10.082;2024-03-06T01:40:29;45.78;;;22.08;;
64188;SDS011;50493;50.970;10.082;2024-03-06T01:42:56;49.55;;;23.10;;
64188;SDS011;50493;50.970;10.082;2024-03-06T01:45:21;45.08;;;20.75;;
64188;SDS011;50493;50.970;10.082;2024-03-06T01:47:46;43.17;;;20.33;;
64188;SDS011;50493;50.970;10.082;2024-03-06T01:50:12;45.33;;;21.40;;
64188;SDS011;50493;50.970;10.082;2024-03-06T01:52:38;39.55;;;20.17;;
64188;SDS011;50493;50.970;10.082;2024-03-06T01:55:06;40.33;;;20.08;;
64188;SDS011;50493;50.970;10.082;2024-03-06T01:57:32;43.38;;;20.73;;
64188;SDS011;50493;50.970;10.082;2024-03-06T02:00:00;40.30;;;19.30;;
64188;SDS011;50493;50.970;10.082;2024-03-06T02:02:26;41.65;;;20.58;;
64188;SDS011;50493;50.970;10.082;2024-03-06T02:04:52;39.70;;;20.17;;
64188;SDS011;50493;50.970;10.082;2024-03-06T02:07:18;41.35;;;19.35;;
64188;SDS011;50493;50.970;10.082;2024-03-06T02:09:45;38.60;;;19.05;;
64188;SDS011;50493;50.970;10.082;2024-03-06T02:12:11;40.55;;;19.08;;
64188;SDS011;50493;50.970;10.082;2024-03-06T02:14:38;45.10;;;22.45;;
64188;SDS011;50493;50.970;10.082;2024-03-06T02:17:04;44.80;;;20.45;;
64188;SDS011;50493;50.970;10.082;2024-03-06T02:19:37;41.28;;;19.60;;
64188;SDS011;50493;50.970;10.082;2024-03-06T02:22:04;45.55;;;21.75;;
64188;SDS011;50493;50.970;10.082;2024-03-06T02:24:30;44.45;;;20.42;;
64188;SDS011;50493;50.970;10.082;2024-03-06T02:26:55;40.22;;;19.88;;
64188;SDS011;50493;50.970;10.082;2024-03-06T02:29:23;44.85;;;20.65;;
64188;SDS011;50493;50.970;10.082;2024-03-06T02:31:48;48.60;;;22.08;;
64188;SDS011;50493;50.970;10.082;2024-03-06T02:34:13;42.75;;;19.95;;
64188;SDS011;50493;50.970;10.082;2024-03-06T02:36:39;40.55;;;19.38;;
64188;SDS011;50493;50.970;10.082;2024-03-06T02:39:06;52.75;;;23.15;;
64188;SDS011;50493;50.970;10.082;2024-03-06T02:41:33;40.90;;;19.38;;
64188;SDS011;50493;50.970;10.082;2024-03-06T02:43:59;43.53;;;20.67;;
64188;SDS011;50493;50.970;10.082;2024-03-06T02:46:24;43.38;;;20.02;;
64188;SDS011;50493;50.970;10.082;2024-03-06T02:48:50;41.08;;;19.85;;
64188;SDS011;50493;50.970;10.082;2024-03-06T02:51:17;50.20;;;23.45;;
64188;SDS011;50493;50.970;10.082;2024-03-06T02:53:43;48.13;;;21.85;;
64188;SDS011;50493;50.970;10.082;2024-03-06T02:56:15;44.55;;;21.00;;
64188;SDS011;50493;50.970;10.082;2024-03-06T02:58:40;44.28;;;20.70;;
64188;SDS011;50493;50.970;10.082;2024-03-06T03:01:06;41.97;;;19.88;;
64188;SDS011;50493;50.970;10.082;2024-03-06T03:03:32;39.00;;;20.08;;
64188;SDS011;50493;50.970;10.082;2024-03-06T03:05:58;41.83;;;20.15;;
64188;SDS011;50493;50.970;10.082;2024-03-06T03:08:24;51.08;;;22.60;;
64188;SDS011;50493;50.970;10.082;2024-03-06T03:10:49;43.90;;;20.52;;
64188;SDS011;50493;50.970;10.082;2024-03-06T03:13:16;42.30;;;20.13;;
64188;SDS011;50493;50.970;10.082;2024-03-06T03:15:41;49.85;;;23.42;;
64188;SDS011;50493;50.970;10.082;2024-03-06T03:18:07;41.72;;;20.02;;
64188;SDS011;50493;50.970;10.082;2024-03-06T03:20:32;40.90;;;19.50;;
64188;SDS011;50493;50.970;10.082;2024-03-06T03:22:57;43.95;;;20.60;;
64188;SDS011;50493;50.970;10.082;2024-03-06T03:25:23;39.65;;;20.00;;
64188;SDS011;50493;50.970;10.082;2024-03-06T03:27:48;41.00;;;20.05;;
64188;SDS011;50493;50.970;10.082;2024-03-06T03:30:15;39.65;;;19.55;;
64188;SDS011;50493;50.970;10.082;2024-03-06T03:32:41;41.70;;;19.90;;
64188;SDS011;50493;50.970;10.082;2024-03-06T03:35:07;41.42;;;20.15;;
64188;SDS011;50493;50.970;10.082;2024-03-06T03:37:33;42.72;;;20.75;;
64188;SDS011;50493;50.970;10.082;2024-03-06T03:39:58;41.58;;;20.83;;
64188;SDS011;50493;50.970;10.082;2024-03-06T03:42:24;42.13;;;20.48;;
64188;SDS011;50493;50.970;10.082;2024-03-06T03:44:49;43.88;;;20.75;;
64188;SDS011;50493;50.970;10.082;2024-03-06T03:47:16;41.63;;;19.38;;
64188;SDS011;50493;50.970;10.082;2024-03-06T03:49:43;39.45;;;19.38;;
64188;SDS011;50493;50.970;10.082;2024-03-06T03:52:08;41.88;;;20.27;;
64188;SDS011;50493;50.970;10.082;2024-03-06T03:54:33;44.20;;;21.40;;
64188;SDS011;50493;50.970;10.082;2024-03-06T03:57:00;39.75;;;19.90;;
64188;SDS011;50493;50.970;10.082;2024-03-06T03:59:25;45.20;;;21.23;;
64188;SDS011;50493;50.970;10.082;2024-03-06T04:01:51;41.28;;;19.95;;
64188;SDS011;50493;50.970;10.082;2024-03-06T04:04:17;40.28;;;20.55;;
64188;SDS011;50493;50.970;10.082;2024-03-06T04:06:43;39.15;;;19.65;;
64188;SDS011;50493;50.970;10.082;2024-03-06T04:09:08;50.35;;;23.33;;
64188;SDS011;50493;50.970;10.082;2024-03-06T04:11:35;41.45;;;20.30;;
64188;SDS011;50493;50.970;10.082;2024-03-06T04:14:02;46.42;;;21.23;;
64188;SDS011;50493;50.970;10.082;2024-03-06T04:16:27;39.70;;;19.45;;
64188;SDS011;50493;50.970;10.082;2024-03-06T04:18:52;39.50;;;19.98;;
64188;SDS011;50493;50.970;10.082;2024-03-06T04:21:19;43.88;;;20.13;;
64188;SDS011;50493;50.970;10.082;2024-03-06T04:23:44;42.78;;;19.95;;
64188;SDS011;50493;50.970;10.082;2024-03-06T04:26:10;44.78;;;20.95;;
64188;SDS011;50493;50.970;10.082;2024-03-06T04:28:35;43.85;;;21.40;;
64188;SDS011;50493;50.970;10.082;2024-03-06T04:31:00;41.28;;;19.83;;
64188;SDS011;50493;50.970;10.082;2024-03-06T04:33:26;41.70;;;19.98;;
64188;SDS011;50493;50.970;10.082;2024-03-06T04:35:51;41.75;;;19.67;;
64188;SDS011;50493;50.970;10.082;2024-03-06T04:38:18;42.20;;;20.52;;
64188;SDS011;50493;50.970;10.082;2024-03-06T04:40:43;46.00;;;20.83;;
64188;SDS011;50493;50.970;10.082;2024-03-06T04:43:09;37.28;;;19.23;;
64188;SDS011;50493;50.970;10.082;2024-03-06T04:45:35;41.00;;;20.20;;
64188;SDS011;50493;50.970;10.082;2024-03-06T04:48:00;42.28;;;20.80;;
64188;SDS011;50493;50.970;10.082;2024-03-06T04:50:26;40.47;;;19.60;;
64188;SDS011;50493;50.970;10.082;2024-03-06T04:52:52;47.83;;;21.58;;
64188;SDS011;50493;50.970;10.082;2024-03-06T04:55:19;45.05;;;20.92;;
64188;SDS011;50493;50.970;10.082;2024-03-06T04:57:47;41.00;;;21.08;;
64188;SDS011;50493;50.970;10.082;2024-03-06T05:00:13;52.42;;;22.15;;
64188;SDS011;50493;50.970;10.082;2024-03-06T05:02:39;44.22;;;20.95;;
64188;SDS011;50493;50.970;10.082;2024-03-06T05:05:07;44.25;;;20.65;;
64188;SDS011;50493;50.970;10.082;2024-03-06T05:07:33;43.40;;;20.50;;
64188;SDS011;50493;50.970;10.082;2024-03-06T05:09:59;48.25;;;21.95;;
64188;SDS011;50493;50.970;10.082;2024-03-06T05:12:26;51.10;;;24.98;;
64188;SDS011;50493;50.970;10.082;2024-03-06T05:14:52;48.10;;;23.00;;
64188;SDS011;50493;50.970;10.082;2024-03-06T05:17:18;48.28;;;22.35;;
64188;SDS011;50493;50.970;10.082;2024-03-06T05:19:44;53.15;;;25.90;;
64188;SDS011;50493;50.970;10.082;2024-03-06T05:22:09;52.25;;;22.23;;
64188;SDS011;50493;50.970;10.082;2024-03-06T05:24:36;43.15;;;21.10;;
64188;SDS011;50493;50.970;10.082;2024-03-06T05:27:02;43.63;;;21.13;;
64188;SDS011;50493;50.970;10.082;2024-03-06T05:29:28;45.38;;;21.27;;
64188;SDS011;50493;50.970;10.082;2024-03-06T05:31:54;41.75;;;21.25;;
64188;SDS011;50493;50.970;10.082;2024-03-06T05:34:20;43.85;;;21.58;;
64188;SDS011;50493;50.970;10.082;2024-03-06T05:36:46;54.28;;;27.63;;
64188;SDS011;50493;50.970;10.082;2024-03-06T05:39:12;46.95;;;22.30;;
64188;SDS011;50493;50.970;10.082;2024-03-06T05:41:37;55.50;;;26.35;;
64188;SDS011;50493;50.970;10.082;2024-03-06T05:44:03;48.42;;;23.17;;
64188;SDS011;50493;50.970;10.082;2024-03-06T05:46:30;56.88;;;27.10;;
64188;SDS011;50493;50.970;10.082;2024-03-06T05:48:55;46.72;;;21.30;;
64188;SDS011;50493;50.970;10.082;2024-03-06T05:51:21;45.28;;;22.50;;
64188;SDS011;50493;50.970;10.082;2024-03-06T05:53:46;52.00;;;24.13;;
64188;SDS011;50493;50.970;10.082;2024-03-06T05:56:11;46.92;;;22.77;;
64188;SDS011;50493;50.970;10.082;2024-03-06T05:58:37;44.42;;;20.90;;
64188;SDS011;50493;50.970;10.082;2024-03-06T06:01:02;51.13;;;23.83;;
64188;SDS011;50493;50.970;10.082;2024-03-06T06:03:32;47.80;;;22.58;;
64188;SDS011;50493;50.970;10.082;2024-03-06T06:05:57;48.50;;;22.63;;
64188;SDS011;50493;50.970;10.082;2024-03-06T06:08:23;46.88;;;22.30;;
64188;SDS011;50493;50.970;10.082;2024-03-06T06:10:49;44.15;;;22.10;;
64188;SDS011;50493;50.970;10.082;2024-03-06T06:13:16;43.90;;;21.42;;
64188;SDS011;50493;50.970;10.082;2024-03-06T06:15:42;53.17;;;24.83;;
64188;SDS011;50493;50.970;10.082;2024-03-06T06:18:07;52.65;;;24.83;;
64188;SDS011;50493;50.970;10.082;2024-03-06T06:20:34;52.72;;;24.90;;
64188;SDS011;50493;50.970;10.082;2024-03-06T06:23:00;57.10;;;25.75;;
64188;SDS011;50493;50.970;10.082;2024-03-06T06:25:25;51.00;;;23.80;;
64188;SDS011;50493;50.970;10.082;2024-03-06T06:27:51;56.80;;;24.73;;
64188;SDS011;50493;50.970;10.082;2024-03-06T06:30:16;53.17;;;24.98;;
64188;SDS011;50493;50.970;10.082;2024-03-06T06:32:42;51.33;;;24.13;;
64188;SDS011;50493;50.970;10.082;2024-03-06T06:35:08;49.92;;;23.48;;
64188;SDS011;50493;50.970;10.082;2024-03-06T06:37:35;54.38;;;24.45;;
64188;SDS011;50493;50.970;10.082;2024-03-06T06:40:01;49.35;;;23.67;;
64188;SDS011;50493;50.970;10.082;2024-03-06T06:42:31;51.35;;;24.13;;
64188;SDS011;50493;50.970;10.082;2024-03-06T06:44:56;49.28;;;23.65;;
64188;SDS011;50493;50.970;10.082;2024-03-06T06:47:22;52.80;;;24.08;;
64188;SDS011;50493;50.970;10.082;2024-03-06T06:49:47;50.10;;;24.23;;
64188;SDS011;50493;50.970;10.082;2024-03-06T06:52:12;48.88;;;23.58;;
64188;SDS011;50493;50.970;10.082;2024-03-06T06:54:39;51.55;;;23.90;;
64188;SDS011;50493;50.970;10.082;2024-03-06T06:57:04;49.60;;;24.35;;
64188;SDS011;50493;50.970;10.082;2024-03-06T06:59:29;50.40;;;24.58;;
64188;SDS011;50493;50.970;10.082;2024-03-06T07:01:55;49.08;;;23.10;;
64188;SDS011;50493;50.970;10.082;2024-03-06T07:04:20;49.13;;;23.50;;
64188;SDS011;50493;50.970;10.082;2024-03-06T07:06:46;47.78;;;23.08;;
64188;SDS011;50493;50.970;10.082;2024-03-06T07:09:11;49.88;;;24.02;;
64188;SDS011;50493;50.970;10.082;2024-03-06T07:11:38;47.97;;;23.42;;
64188;SDS011;50493;50.970;10.082;2024-03-06T07:14:04;51.28;;;23.27;;
64188;SDS011;50493;50.970;10.082;2024-03-06T07:16:29;47.03;;;22.60;;
64188;SDS011;50493;50.970;10.082;2024-03-06T07:18:54;45.50;;;22.25;;
64188;SDS011;50493;50.970;10.082;2024-03-06T07:21:20;47.17;;;22.92;;
64188;SDS011;50493;50.970;10.082;2024-03-06T07:23:45;48.17;;;22.40;;
64188;SDS011;50493;50.970;10.082;2024-03-06T07:26:10;47.53;;;22.92;;
64188;SDS011;50493;50.970;10.082;2024-03-06T07:28:37;43.88;;;21.30;;
64188;SDS011;50493;50.970;10.082;2024-03-06T07:31:02;45.65;;;22.00;;
64188;SDS011;50493;50.970;10.082;2024-03-06T07:33:28;45.67;;;22.85;;
64188;SDS011;50493;50.970;10.082;2024-03-06T07:35:53;48.00;;;22.52;;
64188;SDS011;50493;50.970;10.082;2024-03-06T07:38:20;46.15;;;21.65;;
64188;SDS011;50493;50.970;10.082;2024-03-06T07:40:46;43.42;;;21.98;;
64188;SDS011;50493;50.970;10.082;2024-03-06T07:43:12;46.65;;;21.15;;
64188;SDS011;50493;50.970;10.082;2024-03-06T07:45:40;42.95;;;21.92;;
64188;SDS011;50493;50.970;10.082;2024-03-06T07:48:06;46.00;;;22.65;;
64188;SDS011;50493;50.970;10.082;2024-03-06T07:50:31;43.42;;;21.85;;
64188;SDS011;50493;50.970;10.082;2024-03-06T07:52:56;45.08;;;21.95;;
64188;SDS011;50493;50.970;10.082;2024-03-06T07:55:22;46.13;;;22.50;;
64188;SDS011;50493;50.970;10.082;2024-03-06T07:57:47;45.25;;;21.13;;
64188;SDS011;50493;50.970;10.082;2024-03-06T08:00:13;42.17;;;21.05;;
64188;SDS011;50493;50.970;10.082;2024-03-06T08:02:41;42.40;;;21.65;;
64188;SDS011;50493;50.970;10.082;2024-03-06T08:05:11;44.20;;;21.08;;
64188;SDS011;50493;50.970;10.082;2024-03-06T08:07:37;43.67;;;20.13;;
64188;SDS011;50493;50.970;10.082;2024-03-06T08:10:03;45.88;;;22.63;;
64188;SDS011;50493;50.970;10.082;2024-03-06T08:12:30;42.22;;;21.58;;
64188;SDS011;50493;50.970;10.082;2024-03-06T08:14:56;43.47;;;21.23;;
64188;SDS011;50493;50.970;10.082;2024-03-06T08:17:21;42.38;;;21.27;;
64188;SDS011;50493;50.970;10.082;2024-03-06T08:19:48;44.80;;;20.70;;
64188;SDS011;50493;50.970;10.082;2024-03-06T08:22:13;46.10;;;21.27;;
64188;SDS011;50493;50.970;10.082;2024-03-06T08:24:39;43.08;;;20.50;;
64188;SDS011;50493;50.970;10.082;2024-03-06T08:27:04;48.00;;;22.27;;
64188;SDS011;50493;50.970;10.082;2024-03-06T08:29:29;44.25;;;23.58;;
64188;SDS011;50493;50.970;10.082;2024-03-06T08:31:55;40.53;;;19.50;;
64188;SDS011;50493;50.970;10.082;2024-03-06T08:34:23;45.10;;;21.65;;
64188;SDS011;50493;50.970;10.082;2024-03-06T08:36:50;47.67;;;22.95;;
64188;SDS011;50493;50.970;10.082;2024-03-06T08:39:16;42.33;;;20.50;;
64188;SDS011;50493;50.970;10.082;2024-03-06T08:41:42;40.17;;;20.67;;
64188;SDS011;50493;50.970;10.082;2024-03-06T08:44:07;40.13;;;19.70;;
64188;SDS011;50493;50.970;10.082;2024-03-06T08:46:32;40.38;;;20.70;;
64188;SDS011;50493;50.970;10.082;2024-03-06T08:48:58;40.60;;;20.83;;
64188;SDS011;50493;50.970;10.082;2024-03-06T08:51:23;42.25;;;20.90;;
64188;SDS011;50493;50.970;10.082;2024-03-06T08:53:51;40.95;;;21.10;;
64188;SDS011;50493;50.970;10.082;2024-03-06T08:56:17;41.65;;;19.88;;
64188;SDS011;50493;50.970;10.082;2024-03-06T08:58:43;38.33;;;19.30;;
64188;SDS011;50493;50.970;10.082;2024-03-06T09:01:08;37.00;;;19.65;;
64188;SDS011;50493;50.970;10.082;2024-03-06T09:03:34;39.72;;;20.13;;
64188;SDS011;50493;50.970;10.082;2024-03-06T09:06:00;40.42;;;20.10;;
64188;SDS011;50493;50.970;10.082;2024-03-06T09:08:27;42.00;;;20.33;;
64188;SDS011;50493;50.970;10.082;2024-03-06T09:10:54;43.75;;;21.65;;
64188;SDS011;50493;50.970;10.082;2024-03-06T09:13:21;41.33;;;19.30;;
64188;SDS011;50493;50.970;10.082;2024-03-06T09:15:46;43.00;;;20.23;;
64188;SDS011;50493;50.970;10.082;2024-03-06T09:18:11;47.85;;;22.48;;
64188;SDS011;50493;50.970;10.082;2024-03-06T09:20:37;40.60;;;20.02;;
64188;SDS011;50493;50.970;10.082;2024-03-06T09:23:02;46.88;;;21.38;;
64188;SDS011;50493;50.970;10.082;2024-03-06T09:25:28;46.53;;;22.00;;
64188;SDS011;50493;50.970;10.082;2024-03-06T09:27:55;47.28;;;22.65;;
64188;SDS011;50493;50.970;10.082;2024-03-06T09:30:20;38.38;;;20.33;;
64188;SDS011;50493;50.970;10.082;2024-03-06T09:32:45;39.65;;;20.95;;
64188;SDS011;50493;50.970;10.082;2024-03-06T09:35:11;48.72;;;22.63;;
64188;SDS011;50493;50.970;10.082;2024-03-06T09:37:37;37.40;;;19.27;;
64188;SDS011;50493;50.970;10.082;2024-03-06T09:40:02;36.42;;;19.58;;
64188;SDS011;50493;50.970;10.082;2024-03-06T09:42:28;38.83;;;19.77;;
64188;SDS011;50493;50.970;10.082;2024-03-06T09:44:55;42.00;;;21.08;;
64188;SDS011;50493;50.970;10.082;2024-03-06T09:47:21;40.13;;;21.02;;
64188;SDS011;50493;50.970;10.082;2024-03-06T09:49:51;40.53;;;19.90;;
64188;SDS011;50493;50.970;10.082;2024-03-06T09:52:20;37.03;;;20.27;;
64188;SDS011;50493;50.970;10.082;2024-03-06T09:54:47;45.72;;;23.48;;
64188;SDS011;50493;50.970;10.082;2024-03-06T09:57:13;46.17;;;23.98;;
64188;SDS011;50493;50.970;10.082;2024-03-06T09:59:40;38.15;;;20.52;;
64188;SDS011;50493;50.970;10.082;2024-03-06T10:02:11;38.90;;;19.48;;
64188;SDS011;50493;50.970;10.082;2024-03-06T10:04:52;37.45;;;19.48;;
64188;SDS011;50493;50.970;10.082;2024-03-06T10:07:17;37.28;;;19.85;;
64188;SDS011;50493;50.970;10.082;2024-03-06T10:09:43;47.72;;;23.45;;
64188;SDS011;50493;50.970;10.082;2024-03-06T10:12:12;35.70;;;19.13;;
64188;SDS011;50493;50.970;10.082;2024-03-06T10:14:38;36.42;;;18.75;;
64188;SDS011;50493;50.970;10.082;2024-03-06T10:17:03;38.45;;;21.17;;
64188;SDS011;50493;50.970;10.082;2024-03-06T10:19:30;41.65;;;22.35;;
64188;SDS011;50493;50.970;10.082;2024-03-06T10:21:56;40.30;;;20.83;;
64188;SDS011;50493;50.970;10.082;2024-03-06T10:24:22;38.75;;;20.33;;
64188;SDS011;50493;50.970;10.082;2024-03-06T10:26:49;45.50;;;24.95;;
64188;SDS011;50493;50.970;10.082;2024-03-06T10:29:15;52.97;;;27.05;;
64188;SDS011;50493;50.970;10.082;2024-03-06T10:31:46;40.33;;;21.40;;
64188;SDS011;50493;50.970;10.082;2024-03-06T10:36:39;50.40;;;24.93;;
64188;SDS011;50493;50.970;10.082;2024-03-06T10:39:05;39.78;;;20.83;;
64188;SDS011;50493;50.970;10.082;2024-03-06T10:41:32;48.60;;;25.30;;
64188;SDS011;50493;50.970;10.082;2024-03-06T10:43:59;46.15;;;24.13;;
64188;SDS011;50493;50.970;10.082;2024-03-06T10:46:25;52.72;;;25.73;;
64188;SDS011;50493;50.970;10.082;2024-03-06T10:48:52;55.10;;;27.50;;
64188;SDS011;50493;50.970;10.082;2024-03-06T10:51:20;51.97;;;26.05;;
64188;SDS011;50493;50.970;10.082;2024-03-06T10:53:47;58.42;;;29.40;;
64188;SDS011;50493;50.970;10.082;2024-03-06T10:56:15;46.40;;;24.60;;
64188;SDS011;50493;50.970;10.082;2024-03-06T10:58:43;50.78;;;26.73;;
64188;SDS011;50493;50.970;10.082;2024-03-06T11:01:09;40.70;;;21.83;;
64188;SDS011;50493;50.970;10.082;2024-03-06T11:03:35;58.25;;;28.58;;
64188;SDS011;50493;50.970;10.082;2024-03-06T11:06:02;49.85;;;26.25;;
64188;SDS011;50493;50.970;10.082;2024-03-06T11:08:29;56.90;;;29.83;;
64188;SDS011;50493;50.970;10.082;2024-03-06T11:11:04;54.60;;;27.38;;
64188;SDS011;50493;50.970;10.082;2024-03-06T11:13:45;54.67;;;28.55;;
64188;SDS011;50493;50.970;10.082;2024-03-06T11:16:11;50.88;;;27.55;;
64188;SDS011;50493;50.970;10.082;2024-03-06T11:18:42;50.15;;;26.75;;
64188;SDS011;50493;50.970;10.082;2024-03-06T11:24:20;56.15;;;28.50;;
64188;SDS011;50493;50.970;10.082;2024-03-06T11:26:48;54.25;;;27.15;;
64188;SDS011;50493;50.970;10.082;2024-03-06T11:29:18;51.70;;;27.17;;
64188;SDS011;50493;50.970;10.082;2024-03-06T11:32:03;51.58;;;26.48;;
64188;SDS011;50493;50.970;10.082;2024-03-06T11:34:32;51.78;;;27.52;;
64188;SDS011;50493;50.970;10.082;2024-03-06T11:36:58;51.75;;;25.80;;
64188;SDS011;50493;50.970;10.082;2024-03-06T11:39:27;44.55;;;22.52;;
64188;SDS011;50493;50.970;10.082;2024-03-06T11:41:55;45.30;;;22.92;;
64188;SDS011;50493;50.970;10.082;2024-03-06T11:44:21;44.97;;;24.00;;
64188;SDS011;50493;50.970;10.082;2024-03-06T11:46:48;49.25;;;24.70;;
64188;SDS011;50493;50.970;10.082;2024-03-06T11:49:15;46.63;;;25.13;;
64188;SDS011;50493;50.970;10.082;2024-03-06T11:51:44;45.97;;;25.58;;
64188;SDS011;50493;50.970;10.082;2024-03-06T11:54:10;40.90;;;23.33;;
64188;SDS011;50493;50.970;10.082;2024-03-06T11:56:35;45.65;;;23.65;;
64188;SDS011;50493;50.970;10.082;2024-03-06T11:59:03;44.78;;;26.85;;
64188;SDS011;50493;50.970;10.082;2024-03-06T12:01:28;43.55;;;23.38;;
64188;SDS011;50493;50.970;10.082;2024-03-06T12:03:55;44.20;;;23.83;;
64188;SDS011;50493;50.970;10.082;2024-03-06T12:06:20;41.15;;;22.77;;
64188;SDS011;50493;50.970;10.082;2024-03-06T12:08:47;46.25;;;22.83;;
64188;SDS011;50493;50.970;10.082;2024-03-06T12:11:13;42.72;;;22.10;;
64188;SDS011;50493;50.970;10.082;2024-03-06T12:13:38;46.28;;;24.65;;
64188;SDS011;50493;50.970;10.082;2024-03-06T12:16:05;46.53;;;23.83;;
64188;SDS011;50493;50.970;10.082;2024-03-06T12:18:32;41.55;;;22.65;;
64188;SDS011;50493;50.970;10.082;2024-03-06T12:20:59;42.95;;;22.10;;
64188;SDS011;50493;50.970;10.082;2024-03-06T12:23:27;42.15;;;22.58;;
64188;SDS011;50493;50.970;10.082;2024-03-06T12:26:01;45.10;;;23.92;;
64188;SDS011;50493;50.970;10.082;2024-03-06T12:28:28;42.47;;;23.55;;
64188;SDS011;50493;50.970;10.082;2024-03-06T12:30:53;43.03;;;23.50;;
64188;SDS011;50493;50.970;10.082;2024-03-06T12:33:20;47.60;;;24.95;;
64188;SDS011;50493;50.970;10.082;2024-03-06T12:35:45;46.45;;;23.90;;
64188;SDS011;50493;50.970;10.082;2024-03-06T12:38:11;45.08;;;24.05;;
64188;SDS011;50493;50.970;10.082;2024-03-06T12:40:37;43.67;;;24.00;;
64188;SDS011;50493;50.970;10.082;2024-03-06T12:43:03;38.78;;;21.92;;
64188;SDS011;50493;50.970;10.082;2024-03-06T12:45:29;43.97;;;24.80;;
64188;SDS011;50493;50.970;10.082;2024-03-06T12:47:54;47.83;;;25.58;;
64188;SDS011;50493;50.970;10.082;2024-03-06T12:50:21;43.97;;;24.80;;
64188;SDS011;50493;50.970;10.082;2024-03-06T12:52:46;49.13;;;25.40;;
64188;SDS011;50493;50.970;10.082;2024-03-06T12:55:11;44.53;;;24.52;;
64188;SDS011;50493;50.970;10.082;2024-03-06T12:57:37;48.20;;;27.10;;
64188;SDS011;50493;50.970;10.082;2024-03-06T13:00:03;46.85;;;25.08;;
64188;SDS011;50493;50.970;10.082;2024-03-06T13:02:31;49.45;;;26.30;;
64188;SDS011;50493;50.970;10.082;2024-03-06T13:04:57;50.03;;;27.02;;
64188;SDS011;50493;50.970;10.082;2024-03-06T13:07:23;47.28;;;25.48;;
64188;SDS011;50493;50.970;10.082;2024-03-06T13:09:52;45.13;;;24.60;;
64188;SDS011;50493;50.970;10.082;2024-03-06T13:12:17;44.42;;;25.17;;
64188;SDS011;50493;50.970;10.082;2024-03-06T13:14:43;45.38;;;25.05;;
64188;SDS011;50493;50.970;10.082;2024-03-06T13:17:08;50.10;;;25.42;;
64188;SDS011;50493;50.970;10.082;2024-03-06T13:19:34;47.72;;;25.50;;
64188;SDS011;50493;50.970;10.082;2024-03-06T13:21:59;49.47;;;26.05;;
64188;SDS011;50493;50.970;10.082;2024-03-06T13:24:26;45.90;;;24.60;;
64188;SDS011;50493;50.970;10.082;2024-03-06T13:26:51;44.10;;;25.35;;
64188;SDS011;50493;50.970;10.082;2024-03-06T13:29:17;41.10;;;23.10;;
64188;SDS011;50493;50.970;10.082;2024-03-06T13:31:42;37.65;;;22.77;;
64188;SDS011;50493;50.970;10.082;2024-03-06T13:34:07;42.85;;;24.35;;
64188;SDS011;50493;50.970;10.082;2024-03-06T13:36:32;41.13;;;23.30;;
64188;SDS011;50493;50.970;10.082;2024-03-06T13:38:58;44.40;;;24.10;;
64188;SDS011;50493;50.970;10.082;2024-03-06T13:41:25;41.45;;;22.63;;
64188;SDS011;50493;50.970;10.082;2024-03-06T13:43:50;45.38;;;24.95;;
64188;SDS011;50493;50.970;10.082;2024-03-06T13:46:16;44.95;;;24.63;;
64188;SDS011;50493;50.970;10.082;2024-03-06T13:48:41;44.28;;;24.60;;
64188;SDS011;50493;50.970;10.082;2024-03-06T13:51:06;43.40;;;23.92;;
64188;SDS011;50493;50.970;10.082;2024-03-06T13:53:32;42.65;;;24.73;;
64188;SDS011;50493;50.970;10.082;2024-03-06T13:55:57;41.38;;;22.45;;
64188;SDS011;50493;50.970;10.082;2024-03-06T13:58:24;40.70;;;22.13;;
64188;SDS011;50493;50.970;10.082;2024-03-06T14:00:51;42.30;;;23.85;;
64188;SDS011;50493;50.970;10.082;2024-03-06T14:03:16;51.10;;;28.90;;
64188;SDS011;50493;50.970;10.082;2024-03-06T14:05:42;37.85;;;21.63;;
64188;SDS011;50493;50.970;10.082;2024-03-06T14:08:07;36.90;;;21.65;;